sensor_id;sensor_type;location;lat;lon;timestamp;pressure;altitude;pressure_sealevel;temperature;humidity
2785;BME280;57944;48.722;9.316;2024-01-11T00:01:48;98996.03;;;-6.82;100.00
2785;BME280;57944;48.722;9.316;2024-01-11T00:04:19;98995.25;;;-6.82;100.00
2785;BME280;57944;48.722;9.316;2024-01-11T00:06:50;98990.38;;;-6.85;100.00
2785;BME280;57944;48.722;9.316;2024-01-11T00:09:21;98992.13;;;-6.87;100.00
2785;BME280;57944;48.722;9.316;2024-01-11T00:11:52;98990.56;;;-6.90;100.00
2785;BME280;57944;48.722;9.316;2024-01-11T00:14:23;98991.31;;;-6.88;100.00
2785;BME280;57944;48.722;9.316;2024-01-11T00:16:56;98996.28;;;-6.88;100.00
2785;BME280;57944;48.722;9.316;2024-01-11T00:19:27;98997.19;;;-6.90;100.00
2785;BME280;57944;48.722;9.316;2024-01-11T00:21:57;98989.25;;;-6.99;100.00
2785;BME280;57944;48.722;9.316;2024-01-11T00:24:28;99001.78;;;-7.03;100.00
2785;BME280;57944;48.722;9.316;2024-01-11T00:27:05;98997.00;;;-7.08;100.00
2785;BME280;57944;48.722;9.316;2024-01-11T00:29:36;99007.09;;;-7.12;100.00
2785;BME280;57944;48.722;9.316;2024-01-11T00:32:12;99011.56;;;-7.22;100.00
2785;BME280;57944;48.722;9.316;2024-01-11T00:34:43;99006.47;;;-7.19;100.00
2785;BME280;57944;48.722;9.316;2024-01-11T00:37:13;99005.44;;;-7.13;100.00
2785;BME280;57944;48.722;9.316;2024-01-11T00:39:44;99003.91;;;-7.16;100.00
2785;BME280;57944;48.722;9.316;2024-01-11T00:42:15;99007.09;;;-7.12;100.00
2785;BME280;57944;48.722;9.316;2024-01-11T00:44:46;99005.69;;;-7.20;100.00
2785;BME280;57944;48.722;9.316;2024-01-11T00:47:19;99003.47;;;-7.27;100.00
2785;BME280;57944;48.722;9.316;2024-01-11T00:49:50;99000.94;;;-7.26;100.00
2785;BME280;57944;48.722;9.316;2024-01-11T00:52:21;99006.81;;;-7.28;100.00
2785;BME280;57944;48.722;9.316;2024-01-11T00:54:52;99002.09;;;-7.34;100.00
2785;BME280;57944;48.722;9.316;2024-01-11T00:57:22;98997.94;;;-7.34;100.00
2785;BME280;57944;48.722;9.316;2024-01-11T00:59:53;99005.31;;;-7.32;100.00
2785;BME280;57944;48.722;9.316;2024-01-11T01:02:26;99005.38;;;-7.34;100.00
2785;BME280;57944;48.722;9.316;2024-01-11T01:04:57;98997.47;;;-7.44;100.00
2785;BME280;57944;48.722;9.316;2024-01-11T01:07:28;99004.81;;;-7.42;100.00
2785;BME280;57944;48.722;9.316;2024-01-11T01:09:58;99000.56;;;-7.38;100.00
2785;BME280;57944;48.722;9.316;2024-01-11T01:12:29;99006.63;;;-7.46;100.00
2785;BME280;57944;48.722;9.316;2024-01-11T01:15:00;99012.41;;;-7.47;100.00
2785;BME280;57944;48.722;9.316;2024-01-11T01:17:33;99016.25;;;-7.38;100.00
2785;BME280;57944;48.722;9.316;2024-01-11T01:20:05;99011.38;;;-7.41;100.00
2785;BME280;57944;48.722;9.316;2024-01-11T01:22:36;99010.34;;;-7.35;100.00
2785;BME280;57944;48.722;9.316;2024-01-11T01:25:07;99015.38;;;-7.37;100.00
2785;BME280;57944;48.722;9.316;2024-01-11T01:27:38;99008.97;;;-7.43;100.00
2785;BME280;57944;48.722;9.316;2024-01-11T01:30:09;99009.09;;;-7.46;100.00
2785;BME280;57944;48.722;9.316;2024-01-11T01:32:42;99012.31;;;-7.44;100.00
2785;BME280;57944;48.722;9.316;2024-01-11T01:35:13;99016.44;;;-7.44;100.00
2785;BME280;57944;48.722;9.316;2024-01-11T01:37:44;99013.94;;;-7.43;100.00
2785;BME280;57944;48.722;9.316;2024-01-11T01:40:14;99012.41;;;-7.47;100.00
2785;BME280;57944;48.722;9.316;2024-01-11T01:42:46;99013.13;;;-7.43;100.00
2785;BME280;57944;48.722;9.316;2024-01-11T01:45:17;99019.00;;;-7.46;100.00
2785;BME280;57944;48.722;9.316;2024-01-11T01:47:50;99031.78;;;-7.58;100.00
2785;BME280;57944;48.722;9.316;2024-01-11T01:50:21;99040.97;;;-7.61;100.00
2785;BME280;57944;48.722;9.316;2024-01-11T01:52:52;99035.88;;;-7.57;100.00
2785;BME280;57944;48.722;9.316;2024-01-11T01:55:24;99041.53;;;-7.53;100.00
2785;BME280;57944;48.722;9.316;2024-01-11T01:57:56;99047.38;;;-7.56;100.00
2785;BME280;57944;48.722;9.316;2024-01-11T02:00:28;99047.47;;;-7.57;100.00
2785;BME280;57944;48.722;9.316;2024-01-11T02:03:01;99048.50;;;-7.65;100.00
2785;BME280;57944;48.722;9.316;2024-01-11T02:05:32;99047.50;;;-7.59;100.00
2785;BME280;57944;48.722;9.316;2024-01-11T02:08:05;99036.72;;;-7.58;100.00
2785;BME280;57944;48.722;9.316;2024-01-11T02:10:37;99045.88;;;-7.60;100.00
2785;BME280;57944;48.722;9.316;2024-01-11T02:13:09;99042.09;;;-7.70;100.00
2785;BME280;57944;48.722;9.316;2024-01-11T02:15:40;99045.22;;;-7.65;100.00
2785;BME280;57944;48.722;9.316;2024-01-11T02:18:13;99041.22;;;-7.69;100.00
2785;BME280;57944;48.722;9.316;2024-01-11T02:20:44;99043.69;;;-7.69;100.00
2785;BME280;57944;48.722;9.316;2024-01-11T02:23:19;99041.13;;;-7.66;100.00
2785;BME280;57944;48.722;9.316;2024-01-11T02:25:54;99040.53;;;-7.73;100.00
2785;BME280;57944;48.722;9.316;2024-01-11T02:28:25;99045.72;;;-7.80;100.00
2785;BME280;57944;48.722;9.316;2024-01-11T02:30:55;99036.50;;;-7.75;100.00
2785;BME280;57944;48.722;9.316;2024-01-11T02:33:26;99048.19;;;-7.80;100.00
2785;BME280;57944;48.722;9.316;2024-01-11T02:35:57;99046.59;;;-7.81;100.00
2785;BME280;57944;48.722;9.316;2024-01-11T02:38:28;99056.59;;;-7.84;100.00
2785;BME280;57944;48.722;9.316;2024-01-11T02:41:01;99047.56;;;-7.85;100.00
2785;BME280;57944;48.722;9.316;2024-01-11T02:43:33;99054.91;;;-7.84;100.00
2785;BME280;57944;48.722;9.316;2024-01-11T02:46:04;99060.00;;;-7.89;100.00
2785;BME280;57944;48.722;9.316;2024-01-11T02:48:34;99052.03;;;-7.97;100.00
2785;BME280;57944;48.722;9.316;2024-01-11T02:51:05;99055.25;;;-7.95;100.00
2785;BME280;57944;48.722;9.316;2024-01-11T02:53:36;99050.41;;;-7.98;100.00
2785;BME280;57944;48.722;9.316;2024-01-11T02:56:09;99049.75;;;-8.03;100.00
2785;BME280;57944;48.722;9.316;2024-01-11T02:58:40;99041.50;;;-8.02;100.00
2785;BME280;57944;48.722;9.316;2024-01-11T03:01:10;99048.09;;;-8.02;100.00
2785;BME280;57944;48.722;9.316;2024-01-11T03:03:41;99045.47;;;-7.98;100.00
2785;BME280;57944;48.722;9.316;2024-01-11T03:06:14;99039.81;;;-8.01;100.00
2785;BME280;57944;48.722;9.316;2024-01-11T03:08:49;99040.84;;;-8.07;100.00
2785;BME280;57944;48.722;9.316;2024-01-11T03:11:23;99031.06;;;-8.12;100.00
2785;BME280;57944;48.722;9.316;2024-01-11T03:13:54;99044.00;;;-8.03;100.00
2785;BME280;57944;48.722;9.316;2024-01-11T03:16:24;99034.97;;;-8.04;100.00
2785;BME280;57944;48.722;9.316;2024-01-11T03:18:55;99034.34;;;-8.11;100.00
2785;BME280;57944;48.722;9.316;2024-01-11T03:21:26;99035.88;;;-8.07;100.00
2785;BME280;57944;48.722;9.316;2024-01-11T03:23:57;99025.47;;;-8.17;100.00
2785;BME280;57944;48.722;9.316;2024-01-11T03:26:30;99025.03;;;-8.03;100.00
2785;BME280;57944;48.722;9.316;2024-01-11T03:29:01;99031.59;;;-8.02;100.00
2785;BME280;57944;48.722;9.316;2024-01-11T03:31:31;99023.44;;;-8.05;100.00
2785;BME280;57944;48.722;9.316;2024-01-11T03:34:02;99031.75;;;-8.06;100.00
2785;BME280;57944;48.722;9.316;2024-01-11T03:36:33;99022.44;;;-8.00;100.00
2785;BME280;57944;48.722;9.316;2024-01-11T03:39:04;99019.88;;;-7.97;100.00
2785;BME280;57944;48.722;9.316;2024-01-11T03:41:37;99016.78;;;-8.03;100.00
2785;BME280;57944;48.722;9.316;2024-01-11T03:44:08;99020.97;;;-8.05;100.00
2785;BME280;57944;48.722;9.316;2024-01-11T03:46:38;99016.38;;;-8.16;100.00
2785;BME280;57944;48.722;9.316;2024-01-11T03:49:09;99018.94;;;-8.19;100.00
2785;BME280;57944;48.722;9.316;2024-01-11T03:51:40;99003.28;;;-8.18;100.00
2785;BME280;57944;48.722;9.316;2024-01-11T03:54:10;99010.06;;;-8.25;100.00
2785;BME280;57944;48.722;9.316;2024-01-11T03:56:44;99010.88;;;-8.24;100.00
2785;BME280;57944;48.722;9.316;2024-01-11T03:59:16;99011.72;;;-8.25;100.00
2785;BME280;57944;48.722;9.316;2024-01-11T04:01:47;99004.41;;;-8.28;100.00
2785;BME280;57944;48.722;9.316;2024-01-11T04:04:17;99007.94;;;-8.36;100.00
2785;BME280;57944;48.722;9.316;2024-01-11T04:06:48;99002.94;;;-8.34;100.00
2785;BME280;57944;48.722;9.316;2024-01-11T04:09:19;99001.28;;;-8.34;100.00
2785;BME280;57944;48.722;9.316;2024-01-11T04:11:53;99007.97;;;-8.37;100.00
2785;BME280;57944;48.722;9.316;2024-01-11T04:14:26;99008.03;;;-8.39;100.00
2785;BME280;57944;48.722;9.316;2024-01-11T04:16:56;99010.72;;;-8.45;100.00
2785;BME280;57944;48.722;9.316;2024-01-11T04:19:27;99019.84;;;-8.47;100.00
2785;BME280;57944;48.722;9.316;2024-01-11T04:21:58;99011.00;;;-8.54;100.00
2785;BME280;57944;48.722;9.316;2024-01-11T04:24:28;99019.19;;;-8.52;100.00
2785;BME280;57944;48.722;9.316;2024-01-11T04:27:02;99019.19;;;-8.52;100.00
2785;BME280;57944;48.722;9.316;2024-01-11T04:29:33;99009.16;;;-8.47;100.00
2785;BME280;57944;48.722;9.316;2024-01-11T04:32:04;99011.59;;;-8.46;100.00
2785;BME280;57944;48.722;9.316;2024-01-11T04:34:35;99012.28;;;-8.42;100.00
2785;BME280;57944;48.722;9.316;2024-01-11T04:37:06;99015.66;;;-8.45;100.00
2785;BME280;57944;48.722;9.316;2024-01-11T04:39:37;99009.56;;;-8.61;100.00
2785;BME280;57944;48.722;9.316;2024-01-11T04:42:10;99013.81;;;-8.65;100.00
2785;BME280;57944;48.722;9.316;2024-01-11T04:44:41;99013.81;;;-8.65;100.00
2785;BME280;57944;48.722;9.316;2024-01-11T04:47:12;99014.56;;;-8.63;100.00
2785;BME280;57944;48.722;9.316;2024-01-11T04:49:42;99006.41;;;-8.66;100.00
2785;BME280;57944;48.722;9.316;2024-01-11T04:52:13;99012.91;;;-8.62;100.00
2785;BME280;57944;48.722;9.316;2024-01-11T04:54:43;99013.38;;;-8.51;100.00
2785;BME280;57944;48.722;9.316;2024-01-11T04:57:16;99005.78;;;-8.45;100.00
2785;BME280;57944;48.722;9.316;2024-01-11T04:59:47;99013.84;;;-8.40;100.00
2785;BME280;57944;48.722;9.316;2024-01-11T05:02:18;99013.06;;;-8.40;100.00
2785;BME280;57944;48.722;9.316;2024-01-11T05:04:50;99012.41;;;-8.47;100.00
2785;BME280;57944;48.722;9.316;2024-01-11T05:07:21;99014.94;;;-8.48;100.00
2785;BME280;57944;48.722;9.316;2024-01-11T05:09:52;99012.72;;;-8.56;100.00
2785;BME280;57944;48.722;9.316;2024-01-11T05:12:25;99018.44;;;-8.56;100.00
2785;BME280;57944;48.722;9.316;2024-01-11T05:14:56;99006.06;;;-8.54;100.00
2785;BME280;57944;48.722;9.316;2024-01-11T05:17:26;99015.84;;;-8.51;100.00
2785;BME280;57944;48.722;9.316;2024-01-11T05:19:57;99013.47;;;-8.54;100.00
2785;BME280;57944;48.722;9.316;2024-01-11T05:22:28;99018.53;;;-8.59;100.00
2785;BME280;57944;48.722;9.316;2024-01-11T05:24:58;99026.38;;;-8.72;100.00
2785;BME280;57944;48.722;9.316;2024-01-11T05:27:29;99026.56;;;-8.79;100.00
2785;BME280;57944;48.722;9.316;2024-01-11T05:30:00;99037.78;;;-8.68;100.00
2785;BME280;57944;48.722;9.316;2024-01-11T05:32:30;99032.09;;;-8.70;100.00
2785;BME280;57944;48.722;9.316;2024-01-11T05:35:01;99038.59;;;-8.68;100.00
2785;BME280;57944;48.722;9.316;2024-01-11T05:37:32;99041.19;;;-8.72;100.00
2785;BME280;57944;48.722;9.316;2024-01-11T05:40:03;99032.84;;;-8.68;100.00
2785;BME280;57944;48.722;9.316;2024-01-11T05:42:38;99040.88;;;-8.62;100.00
2785;BME280;57944;48.722;9.316;2024-01-11T05:45:09;99049.94;;;-8.61;100.00
2785;BME280;57944;48.722;9.316;2024-01-11T05:47:44;99055.00;;;-8.65;100.00
2785;BME280;57944;48.722;9.316;2024-01-11T05:50:15;99055.84;;;-8.66;100.00
2785;BME280;57944;48.722;9.316;2024-01-11T05:52:46;99055.00;;;-8.65;100.00
2785;BME280;57944;48.722;9.316;2024-01-11T05:55:17;99049.94;;;-8.61;100.00
2785;BME280;57944;48.722;9.316;2024-01-11T05:57:50;99055.59;;;-8.57;100.00
2785;BME280;57944;48.722;9.316;2024-01-11T06:00:21;99065.47;;;-8.57;100.00
2785;BME280;57944;48.722;9.316;2024-01-11T06:02:52;99069.81;;;-8.65;100.00
2785;BME280;57944;48.722;9.316;2024-01-11T06:05:22;99066.00;;;-8.75;100.00
2785;BME280;57944;48.722;9.316;2024-01-11T06:07:53;99070.34;;;-8.84;100.00
2785;BME280;57944;48.722;9.316;2024-01-11T06:10:24;99070.94;;;-8.75;100.00
2785;BME280;57944;48.722;9.316;2024-01-11T06:12:57;99071.03;;;-8.79;100.00
2785;BME280;57944;48.722;9.316;2024-01-11T06:15:27;99076.81;;;-8.80;100.00
2785;BME280;57944;48.722;9.316;2024-01-11T06:17:58;99084.25;;;-8.80;100.00
2785;BME280;57944;48.722;9.316;2024-01-11T06:20:29;99087.81;;;-8.90;100.00
2785;BME280;57944;48.722;9.316;2024-01-11T06:23:00;99078.09;;;-8.96;100.00
2785;BME280;57944;48.722;9.316;2024-01-11T06:25:30;99073.97;;;-8.95;100.00
2785;BME280;57944;48.722;9.316;2024-01-11T06:28:04;99063.28;;;-8.96;100.00
2785;BME280;57944;48.722;9.316;2024-01-11T06:30:37;99066.53;;;-8.94;100.00
2785;BME280;57944;48.722;9.316;2024-01-11T06:33:08;99077.94;;;-8.90;100.00
2785;BME280;57944;48.722;9.316;2024-01-11T06:35:39;99077.94;;;-8.90;100.00
2785;BME280;57944;48.722;9.316;2024-01-11T06:38:09;99083.72;;;-8.91;100.00
2785;BME280;57944;48.722;9.316;2024-01-11T06:40:40;99076.31;;;-8.91;100.00
2785;BME280;57944;48.722;9.316;2024-01-11T06:43:13;99079.63;;;-8.92;100.00
2785;BME280;57944;48.722;9.316;2024-01-11T06:45:44;99071.47;;;-8.94;100.00
2785;BME280;57944;48.722;9.316;2024-01-11T06:48:14;99073.25;;;-8.99;100.00
2785;BME280;57944;48.722;9.316;2024-01-11T06:50:45;99078.09;;;-8.96;100.00
2785;BME280;57944;48.722;9.316;2024-01-11T06:53:16;99086.72;;;-8.80;100.00
2785;BME280;57944;48.722;9.316;2024-01-11T06:55:47;99092.34;;;-8.74;100.00
2785;BME280;57944;48.722;9.316;2024-01-11T06:58:23;99076.69;;;-8.75;100.00
2785;BME280;57944;48.722;9.316;2024-01-11T07:00:54;99084.91;;;-8.74;100.00
2785;BME280;57944;48.722;9.316;2024-01-11T07:03:25;99094.22;;;-8.83;100.00
2785;BME280;57944;48.722;9.316;2024-01-11T07:05:55;99104.63;;;-8.73;100.00
2785;BME280;57944;48.722;9.316;2024-01-11T07:08:26;99100.47;;;-8.71;100.00
2785;BME280;57944;48.722;9.316;2024-01-11T07:10:57;99103.91;;;-8.77;100.00
2785;BME280;57944;48.722;9.316;2024-01-11T07:13:30;99095.94;;;-8.86;100.00
2785;BME280;57944;48.722;9.316;2024-01-11T07:16:01;99109.84;;;-8.82;100.00
2785;BME280;57944;48.722;9.316;2024-01-11T07:18:33;99118.72;;;-8.77;100.00
2785;BME280;57944;48.722;9.316;2024-01-11T07:21:04;99122.63;;;-8.69;100.00
2785;BME280;57944;48.722;9.316;2024-01-11T07:23:35;99118.28;;;-8.61;100.00
2785;BME280;57944;48.722;9.316;2024-01-11T07:26:05;99115.78;;;-8.60;100.00
2785;BME280;57944;48.722;9.316;2024-01-11T07:28:39;99111.75;;;-8.62;100.00
2785;BME280;57944;48.722;9.316;2024-01-11T07:31:11;99103.91;;;-8.77;100.00
2785;BME280;57944;48.722;9.316;2024-01-11T07:33:41;99107.06;;;-8.71;100.00
2785;BME280;57944;48.722;9.316;2024-01-11T07:36:12;99110.88;;;-8.61;100.00
2785;BME280;57944;48.722;9.316;2024-01-11T07:38:43;99107.16;;;-8.46;100.00
2785;BME280;57944;48.722;9.316;2024-01-11T07:41:14;99122.84;;;-8.47;100.00
2785;BME280;57944;48.722;9.316;2024-01-11T07:43:47;99133.41;;;-8.42;100.00
2785;BME280;57944;48.722;9.316;2024-01-11T07:46:21;99146.22;;;-8.31;100.00
2785;BME280;57944;48.722;9.316;2024-01-11T07:49:05;99140.38;;;-8.28;100.00
2785;BME280;57944;48.722;9.316;2024-01-11T07:51:36;99133.47;;;-8.17;100.00
2785;BME280;57944;48.722;9.316;2024-01-11T07:54:06;99135.63;;;-8.06;100.00
2785;BME280;57944;48.722;9.316;2024-01-11T07:56:37;99136.13;;;-7.97;100.00
2785;BME280;57944;48.722;9.316;2024-01-11T07:59:10;99145.84;;;-7.91;100.00
2785;BME280;57944;48.722;9.316;2024-01-11T08:01:43;99154.84;;;-7.88;100.00
2785;BME280;57944;48.722;9.316;2024-01-11T08:04:13;99157.75;;;-7.75;100.00
2785;BME280;57944;48.722;9.316;2024-01-11T08:06:44;99168.81;;;-7.60;100.00
2785;BME280;57944;48.722;9.316;2024-01-11T08:09:15;99168.78;;;-7.59;100.00
2785;BME280;57944;48.722;9.316;2024-01-11T08:11:46;99181.72;;;-7.51;100.00
2785;BME280;57944;48.722;9.316;2024-01-11T08:14:21;99183.06;;;-7.40;100.00
2785;BME280;57944;48.722;9.316;2024-01-11T08:16:52;99188.56;;;-7.32;100.00
2785;BME280;57944;48.722;9.316;2024-01-11T08:19:23;99183.41;;;-7.26;100.00
2785;BME280;57944;48.722;9.316;2024-01-11T08:21:55;99173.31;;;-7.20;100.00
2785;BME280;57944;48.722;9.316;2024-01-11T08:24:25;99185.59;;;-7.17;100.00
2785;BME280;57944;48.722;9.316;2024-01-11T08:26:56;99185.13;;;-7.03;100.00
2785;BME280;57944;48.722;9.316;2024-01-11T08:29:30;99191.41;;;-6.93;100.00
2785;BME280;57944;48.722;9.316;2024-01-11T08:32:02;99196.81;;;-6.83;100.00
2785;BME280;57944;48.722;9.316;2024-01-11T08:34:50;99193.19;;;-6.73;100.00
2785;BME280;57944;48.722;9.316;2024-01-11T08:37:21;99189.41;;;-6.60;100.00
2785;BME280;57944;48.722;9.316;2024-01-11T08:39:52;99201.44;;;-6.49;100.00
2785;BME280;57944;48.722;9.316;2024-01-11T08:42:23;99199.38;;;-6.38;100.00
2785;BME280;57944;48.722;9.316;2024-01-11T08:44:56;99197.38;;;-6.28;100.00
2785;BME280;57944;48.722;9.316;2024-01-11T08:47:31;99197.78;;;-6.17;100.00
2785;BME280;57944;48.722;9.316;2024-01-11T08:50:03;99206.63;;;-6.10;100.00
2785;BME280;57944;48.722;9.316;2024-01-11T08:52:34;99209.00;;;-6.07;100.00
2785;BME280;57944;48.722;9.316;2024-01-11T08:55:07;99205.28;;;-5.96;100.00
2785;BME280;57944;48.722;9.316;2024-01-11T08:57:40;99200.59;;;-5.82;100.00
2785;BME280;57944;48.722;9.316;2024-01-11T09:00:14;99193.72;;;-5.75;100.00
2785;BME280;57944;48.722;9.316;2024-01-11T09:02:46;99186.91;;;-5.70;100.00
2785;BME280;57944;48.722;9.316;2024-01-11T09:05:17;99190.75;;;-5.63;100.00
2785;BME280;57944;48.722;9.316;2024-01-11T09:07:49;99200.25;;;-5.52;100.00
2785;BME280;57944;48.722;9.316;2024-01-11T09:10:21;99189.97;;;-5.43;100.00
2785;BME280;57944;48.722;9.316;2024-01-11T09:12:52;99191.31;;;-5.36;100.00
2785;BME280;57944;48.722;9.316;2024-01-11T09:15:25;99204.13;;;-5.25;100.00
2785;BME280;57944;48.722;9.316;2024-01-11T09:17:55;99205.84;;;-5.27;100.00
2785;BME280;57944;48.722;9.316;2024-01-11T09:20:28;99212.72;;;-5.32;100.00
2785;BME280;57944;48.722;9.316;2024-01-11T09:22:59;99210.47;;;-5.18;100.00
2785;BME280;57944;48.722;9.316;2024-01-11T09:25:31;99201.16;;;-5.12;100.00
2785;BME280;57944;48.722;9.316;2024-01-11T09:28:03;99192.91;;;-4.94;100.00
2785;BME280;57944;48.722;9.316;2024-01-11T09:30:36;99198.38;;;-4.86;100.00
2785;BME280;57944;48.722;9.316;2024-01-11T09:33:07;99212.38;;;-4.83;100.00
2785;BME280;57944;48.722;9.316;2024-01-11T09:35:37;99225.06;;;-4.89;100.00
2785;BME280;57944;48.722;9.316;2024-01-11T09:38:09;99224.44;;;-4.95;100.00
2785;BME280;57944;48.722;9.316;2024-01-11T09:40:40;99217.53;;;-4.88;100.00
2785;BME280;57944;48.722;9.316;2024-01-11T09:43:11;99215.16;;;-4.70;100.00
2785;BME280;57944;48.722;9.316;2024-01-11T09:45:44;99218.84;;;-4.60;100.00
2785;BME280;57944;48.722;9.316;2024-01-11T09:48:16;99221.19;;;-4.57;100.00
2785;BME280;57944;48.722;9.316;2024-01-11T09:50:48;99225.94;;;-4.51;100.00
2785;BME280;57944;48.722;9.316;2024-01-11T09:53:20;99214.38;;;-4.33;100.00
2785;BME280;57944;48.722;9.316;2024-01-11T09:55:52;99221.78;;;-4.32;100.00
2785;BME280;57944;48.722;9.316;2024-01-11T09:58:23;99220.75;;;-4.28;100.00
2785;BME280;57944;48.722;9.316;2024-01-11T10:01:00;99215.16;;;-4.33;100.00
2785;BME280;57944;48.722;9.316;2024-01-11T10:03:31;99222.69;;;-4.15;100.00
2785;BME280;57944;48.722;9.316;2024-01-11T10:06:03;99223.00;;;-4.04;100.00
2785;BME280;57944;48.722;9.316;2024-01-11T10:08:36;99214.88;;;-3.89;100.00
2785;BME280;57944;48.722;9.316;2024-01-11T10:11:15;99210.06;;;-3.74;100.00
2785;BME280;57944;48.722;9.316;2024-01-11T10:13:46;99205.47;;;-3.65;100.00
2785;BME280;57944;48.722;9.316;2024-01-11T10:16:19;99204.94;;;-3.71;100.00
2785;BME280;57944;48.722;9.316;2024-01-11T10:18:54;99199.09;;;-3.53;100.00
2785;BME280;57944;48.722;9.316;2024-01-11T10:21:26;99189.03;;;-3.69;100.00
2785;BME280;57944;48.722;9.316;2024-01-11T10:23:58;99177.53;;;-3.71;100.00
2785;BME280;57944;48.722;9.316;2024-01-11T10:26:32;99186.22;;;-3.97;100.00
2785;BME280;57944;48.722;9.316;2024-01-11T10:29:03;99176.25;;;-3.97;100.00
2785;BME280;57944;48.722;9.316;2024-01-11T10:31:42;99170.56;;;-3.82;100.00
2785;BME280;57944;48.722;9.316;2024-01-11T10:34:13;99162.88;;;-3.77;100.00
2785;BME280;57944;48.722;9.316;2024-01-11T10:36:45;99164.75;;;-3.83;100.00
2785;BME280;57944;48.722;9.316;2024-01-11T10:39:17;99168.00;;;-3.80;100.00
2785;BME280;57944;48.722;9.316;2024-01-11T10:41:52;99167.25;;;-3.65;100.00
2785;BME280;57944;48.722;9.316;2024-01-11T10:44:34;99166.09;;;-3.41;100.00
2785;BME280;57944;48.722;9.316;2024-01-11T10:47:09;99167.91;;;-3.27;100.00
2785;BME280;57944;48.722;9.316;2024-01-11T10:49:41;99174.88;;;-3.16;100.00
2785;BME280;57944;48.722;9.316;2024-01-11T10:52:13;99171.63;;;-3.01;100.00
2785;BME280;57944;48.722;9.316;2024-01-11T10:54:46;99177.53;;;-2.86;100.00
2785;BME280;57944;48.722;9.316;2024-01-11T10:57:16;99181.41;;;-2.80;100.00
2785;BME280;57944;48.722;9.316;2024-01-11T10:59:49;99184.91;;;-2.84;100.00
2785;BME280;57944;48.722;9.316;2024-01-11T11:02:23;99186.41;;;-2.80;100.00
2785;BME280;57944;48.722;9.316;2024-01-11T11:04:55;99188.47;;;-2.88;100.00
2785;BME280;57944;48.722;9.316;2024-01-11T11:07:29;99184.38;;;-2.89;100.00
2785;BME280;57944;48.722;9.316;2024-01-11T11:10:00;99180.81;;;-2.85;100.00
2785;BME280;57944;48.722;9.316;2024-01-11T11:12:33;99175.13;;;-2.72;100.00
2785;BME280;57944;48.722;9.316;2024-01-11T11:15:06;99188.84;;;-2.63;100.00
2785;BME280;57944;48.722;9.316;2024-01-11T11:17:40;99190.84;;;-2.54;100.00
2785;BME280;57944;48.722;9.316;2024-01-11T11:20:12;99182.16;;;-2.47;100.00
2785;BME280;57944;48.722;9.316;2024-01-11T11:22:47;99187.41;;;-2.35;100.00
2785;BME280;57944;48.722;9.316;2024-01-11T11:25:24;99175.09;;;-2.22;100.00
2785;BME280;57944;48.722;9.316;2024-01-11T11:27:55;99166.41;;;-2.31;100.00
2785;BME280;57944;48.722;9.316;2024-01-11T11:30:27;99165.50;;;-2.30;100.00
2785;BME280;57944;48.722;9.316;2024-01-11T11:33:08;99162.44;;;-2.19;100.00
2785;BME280;57944;48.722;9.316;2024-01-11T11:35:39;99162.75;;;-2.10;100.00
2785;BME280;57944;48.722;9.316;2024-01-11T11:38:08;99170.25;;;-2.10;100.00
2785;BME280;57944;48.722;9.316;2024-01-11T11:40:39;99178.06;;;-2.00;100.00
2785;BME280;57944;48.722;9.316;2024-01-11T11:43:12;99175.47;;;-1.98;100.00
2785;BME280;57944;48.722;9.316;2024-01-11T11:45:45;99171.75;;;-1.91;100.00
2785;BME280;57944;48.722;9.316;2024-01-11T11:48:52;99161.03;;;-1.93;100.00
2785;BME280;57944;48.722;9.316;2024-01-11T11:51:24;99152.75;;;-2.10;100.00
2785;BME280;57944;48.722;9.316;2024-01-11T11:53:56;99146.16;;;-2.11;100.00
2785;BME280;57944;48.722;9.316;2024-01-11T11:56:28;99153.25;;;-2.19;100.00
2785;BME280;57944;48.722;9.316;2024-01-11T11:59:00;99147.47;;;-2.35;100.00
2785;BME280;57944;48.722;9.316;2024-01-11T12:01:33;99144.69;;;-2.15;100.00
2785;BME280;57944;48.722;9.316;2024-01-11T12:04:08;99144.22;;;-2.06;100.00
2785;BME280;57944;48.722;9.316;2024-01-11T12:06:39;99140.81;;;-2.05;100.00
2785;BME280;57944;48.722;9.316;2024-01-11T12:09:10;99141.47;;;-2.01;100.00
2785;BME280;57944;48.722;9.316;2024-01-11T12:11:41;99135.50;;;-1.98;100.00
2785;BME280;57944;48.722;9.316;2024-01-11T12:14:24;99113.53;;;-2.08;100.00
2785;BME280;57944;48.722;9.316;2024-01-11T12:16:56;99106.97;;;-1.94;100.00
2785;BME280;57944;48.722;9.316;2024-01-11T12:19:30;99114.38;;;-1.93;100.00
2785;BME280;57944;48.722;9.316;2024-01-11T12:22:01;99115.41;;;-1.81;100.00
2785;BME280;57944;48.722;9.316;2024-01-11T12:24:31;99109.50;;;-1.80;100.00
2785;BME280;57944;48.722;9.316;2024-01-11T12:27:03;99105.94;;;-1.76;100.00
2785;BME280;57944;48.722;9.316;2024-01-11T12:29:33;99107.03;;;-1.96;100.00
2785;BME280;57944;48.722;9.316;2024-01-11T12:32:19;99103.97;;;-1.85;100.00
2785;BME280;57944;48.722;9.316;2024-01-11T12:34:52;99101.91;;;-1.78;100.00
2785;BME280;57944;48.722;9.316;2024-01-11T12:37:23;99105.34;;;-1.65;100.00
2785;BME280;57944;48.722;9.316;2024-01-11T12:39:58;99107.31;;;-1.56;100.00
2785;BME280;57944;48.722;9.316;2024-01-11T12:42:28;99106.97;;;-1.50;100.00
2785;BME280;57944;48.722;9.316;2024-01-11T12:44:59;99107.22;;;-1.69;100.00
2785;BME280;57944;48.722;9.316;2024-01-11T12:47:30;99097.47;;;-1.59;100.00
2785;BME280;57944;48.722;9.316;2024-01-11T12:50:04;99104.66;;;-1.53;100.00
2785;BME280;57944;48.722;9.316;2024-01-11T12:52:35;99099.09;;;-1.58;100.00
2785;BME280;57944;48.722;9.316;2024-01-11T12:55:08;99096.84;;;-1.63;100.00
2785;BME280;57944;48.722;9.316;2024-01-11T12:57:48;99106.69;;;-1.45;100.00
2785;BME280;57944;48.722;9.316;2024-01-11T13:00:19;99092.41;;;-1.43;100.00
2785;BME280;57944;48.722;9.316;2024-01-11T13:02:51;99095.44;;;-1.52;100.00
2785;BME280;57944;48.722;9.316;2024-01-11T13:05:24;99091.19;;;-1.50;100.00
2785;BME280;57944;48.722;9.316;2024-01-11T13:07:55;99084.56;;;-1.37;100.00
2785;BME280;57944;48.722;9.316;2024-01-11T13:10:26;99088.50;;;-1.33;100.00
2785;BME280;57944;48.722;9.316;2024-01-11T13:12:59;99078.13;;;-1.41;100.00
2785;BME280;57944;48.722;9.316;2024-01-11T13:15:36;99082.84;;;-1.37;100.00
2785;BME280;57944;48.722;9.316;2024-01-11T13:18:07;99087.06;;;-1.51;100.00
2785;BME280;57944;48.722;9.316;2024-01-11T13:20:41;99092.22;;;-1.40;100.00
2785;BME280;57944;48.722;9.316;2024-01-11T13:23:12;99094.38;;;-1.34;100.00
2785;BME280;57944;48.722;9.316;2024-01-11T13:25:45;99092.41;;;-1.29;100.00